createdAt,value
2017-12-04T09:06:54.532Z,1011.72
2017-12-04T09:07:54.719Z,1011.70
2017-12-04T09:08:54.351Z,1011.69
2017-12-04T09:09:54.174Z,1011.79
2017-12-04T09:10:55.392Z,1011.81
2017-12-04T09:11:53.497Z,1011.82
2017-12-04T09:12:54.051Z,1011.82
2017-12-04T09:13:53.485Z,1011.89
2017-12-04T09:14:53.594Z,1011.82
2017-12-04T09:15:53.521Z,1011.93
2017-12-04T09:16:53.541Z,1011.84
2017-12-04T09:18:07.006Z,1011.93
2017-12-04T09:19:06.353Z,1011.91
2017-12-04T09:20:06.423Z,1011.95
2017-12-04T09:21:06.450Z,1011.94
2017-12-04T09:22:06.409Z,1011.98
2017-12-04T09:23:06.375Z,1012.01
2017-12-04T09:24:06.280Z,1012.01
2017-12-04T09:25:06.864Z,1012.03
2017-12-04T09:26:06.300Z,1012.00
2017-12-04T09:27:06.478Z,1012.03
2017-12-04T09:28:06.375Z,1012.09
2017-12-04T09:29:06.303Z,1011.95
2017-12-04T09:30:06.354Z,1012.10
2017-12-04T09:35:59.100Z,1011.70
2017-12-04T09:36:59.021Z,1011.74
2017-12-04T09:37:59.001Z,1011.77
2017-12-04T09:38:58.989Z,1011.74
2017-12-04T09:39:58.967Z,1011.79
2017-12-04T09:40:58.958Z,1011.80
2017-12-04T09:41:59.017Z,1011.79
2017-12-04T09:42:58.948Z,1011.75
2017-12-04T09:43:58.943Z,1011.80
2017-12-04T09:44:58.928Z,1011.82
2017-12-04T09:45:58.911Z,1011.86
2017-12-04T09:46:58.886Z,1011.80
2017-12-04T09:47:58.941Z,1011.84
2017-12-04T09:48:58.883Z,1011.83
2017-12-04T09:49:58.871Z,1011.82
2017-12-04T09:50:58.916Z,1011.83
2017-12-04T09:54:55.296Z,1012.26
2017-12-04T09:55:44.604Z,1012.28
2017-12-04T09:56:44.203Z,1012.31
2017-12-04T09:57:44.108Z,1012.24
2017-12-04T09:58:44.703Z,1012.17
2017-12-04T09:59:43.992Z,1012.11
2017-12-04T10:00:44.048Z,1012.15
2017-12-04T10:01:43.988Z,1012.11
2017-12-04T10:02:44.006Z,1012.10
2017-12-04T10:03:43.978Z,1012.07
2017-12-04T10:04:43.983Z,1012.12
2017-12-04T10:05:43.976Z,1012.13
2017-12-04T10:06:43.974Z,1012.12
2017-12-04T10:07:43.944Z,1012.19
2017-12-04T10:08:43.971Z,1012.23
2017-12-04T10:09:43.903Z,1012.23
2017-12-04T10:10:43.906Z,1012.21
2017-12-04T10:11:43.889Z,1012.21
2017-12-04T10:12:43.880Z,1012.21
2017-12-04T10:13:43.872Z,1012.20
2017-12-04T10:14:43.888Z,1012.20
2017-12-04T10:15:43.843Z,1012.25
2017-12-04T10:16:43.849Z,1012.25
2017-12-04T10:17:43.819Z,1012.26
2017-12-04T10:18:43.853Z,1012.23
2017-12-04T10:19:43.795Z,1012.25
2017-12-04T10:20:43.784Z,1012.23
2017-12-04T10:21:43.770Z,1012.21
2017-12-04T10:22:43.749Z,1012.24
2017-12-04T10:23:43.770Z,1012.27
2017-12-04T10:24:43.771Z,1012.23
2017-12-04T10:25:43.799Z,1012.27
2017-12-04T10:26:57.486Z,1012.24
2017-12-04T10:27:44.510Z,1012.25
2017-12-04T10:28:43.879Z,1012.29
2017-12-04T10:29:43.674Z,1012.22
2017-12-04T10:30:44.585Z,1012.24
2017-12-04T10:31:47.446Z,1012.26
2017-12-04T10:32:43.616Z,1012.24
2017-12-04T10:33:43.599Z,1012.24
2017-12-04T10:34:44.354Z,1012.30
2017-12-04T10:35:43.834Z,1012.22
2017-12-04T10:36:43.725Z,1012.24
2017-12-04T10:38:14.707Z,1012.25
2017-12-04T10:38:44.842Z,1012.21
2017-12-04T10:39:44.717Z,1012.26
2017-12-04T10:40:44.848Z,1012.25
2017-12-04T10:41:44.650Z,1012.25
2017-12-04T10:42:44.560Z,1012.27
2017-12-04T10:43:44.781Z,1012.26
2017-12-04T10:44:44.152Z,1012.26
2017-12-04T10:45:43.694Z,1012.26
2017-12-04T10:46:44.240Z,1012.29
2017-12-04T10:47:43.578Z,1012.29
2017-12-04T10:48:43.594Z,1012.29
2017-12-04T10:49:44.671Z,1012.35
2017-12-04T10:50:43.997Z,1012.34
2017-12-04T10:51:44.662Z,1012.35
2017-12-04T10:52:43.856Z,1012.35
2017-12-04T10:53:43.507Z,1012.35
2017-12-04T10:54:43.576Z,1012.24
2017-12-04T10:55:44.412Z,1012.36
2017-12-04T10:56:43.493Z,1012.29
2017-12-04T10:57:43.990Z,1012.22
2017-12-04T10:58:43.793Z,1012.28
2017-12-04T10:59:43.619Z,1012.38
2017-12-04T11:00:43.563Z,1012.30
2017-12-04T11:01:43.606Z,1012.34
2017-12-04T11:02:43.308Z,1012.33
2017-12-04T11:03:43.772Z,1012.35
2017-12-04T11:04:43.460Z,1012.38
2017-12-04T11:05:43.425Z,1012.40
2017-12-04T11:06:43.421Z,1012.43
2017-12-04T11:07:43.287Z,1012.37
2017-12-04T11:08:53.376Z,1012.40
2017-12-04T11:09:43.428Z,1012.36
2017-12-04T11:10:43.353Z,1012.38
2017-12-04T11:11:43.244Z,1012.35
2017-12-04T11:12:44.150Z,1012.35
2017-12-04T11:13:44.493Z,1012.31
2017-12-04T11:14:44.542Z,1012.35
2017-12-04T11:15:43.212Z,1012.36
2017-12-04T11:16:43.210Z,1012.36
2017-12-04T11:17:43.176Z,1012.34
2017-12-04T11:18:43.377Z,1012.27
2017-12-04T11:19:43.107Z,1012.31
2017-12-04T11:20:43.171Z,1012.30
2017-12-04T11:21:43.747Z,1012.35
2017-12-04T11:22:43.012Z,1012.31
2017-12-04T11:23:43.159Z,1012.31
2017-12-04T11:24:43.774Z,1012.24
2017-12-04T11:25:43.182Z,1012.24
2017-12-04T11:26:43.927Z,1012.31
2017-12-04T11:27:44.315Z,1012.31
2017-12-04T11:28:43.571Z,1012.30
2017-12-04T11:29:43.140Z,1012.27
2017-12-04T11:30:44.102Z,1012.29
2017-12-04T11:31:43.078Z,1012.36
2017-12-04T11:32:43.309Z,1012.29
2017-12-04T11:33:42.988Z,1012.24
2017-12-04T11:34:42.983Z,1012.26
2017-12-04T11:35:44.799Z,1012.28
2017-12-04T11:36:43.120Z,1012.38
2017-12-04T11:37:43.020Z,1012.32
2017-12-04T11:38:43.136Z,1012.37
2017-12-04T11:39:43.884Z,1012.48
2017-12-04T11:40:42.778Z,1012.48
2017-12-04T11:41:42.797Z,1012.44
2017-12-04T11:42:42.861Z,1012.53
2017-12-04T11:43:51.302Z,1012.58
2017-12-04T11:44:43.364Z,1012.52
2017-12-04T11:45:43.364Z,1012.45
2017-12-04T11:46:42.980Z,1012.46
2017-12-04T11:47:43.626Z,1012.47
2017-12-04T11:48:43.250Z,1012.47
2017-12-04T11:49:42.855Z,1012.49
2017-12-04T11:50:43.146Z,1012.48
2017-12-04T11:54:16.851Z,1012.50
2017-12-04T11:55:16.438Z,1012.57
2017-12-04T11:56:16.497Z,1012.55
2017-12-04T11:57:16.613Z,1012.53
2017-12-04T11:58:16.486Z,1012.55
2017-12-04T11:59:15.710Z,1012.56
2017-12-04T12:00:16.933Z,1012.47
2017-12-04T12:03:17.663Z,1012.44
2017-12-04T12:04:18.275Z,1012.54
2017-12-04T12:05:18.251Z,1012.53
2017-12-04T12:06:18.524Z,1012.47
2017-12-04T12:07:17.566Z,1012.49
2017-12-04T12:08:17.437Z,1012.53
2017-12-04T12:15:17.927Z,1012.54
2017-12-04T12:16:17.919Z,1012.51
2017-12-04T12:17:18.452Z,1012.56
2017-12-04T12:18:18.477Z,1012.54
2017-12-04T12:19:20.418Z,1012.53
2017-12-04T12:20:18.245Z,1012.46
2017-12-04T12:21:17.348Z,1012.48
2017-12-04T12:24:01.153Z,1012.49
2017-12-04T12:25:00.154Z,1012.51
2017-12-04T12:25:59.022Z,1012.54
2017-12-04T12:26:59.082Z,1012.49
2017-12-04T12:27:58.402Z,1012.48
2017-12-04T12:28:58.538Z,1012.54
2017-12-04T12:30:05.190Z,1012.53
2017-12-04T12:31:14.078Z,1012.41
2017-12-04T12:31:59.205Z,1012.48
2017-12-04T12:33:00.178Z,1012.47
2017-12-04T12:33:59.208Z,1012.48
2017-12-04T12:35:00.455Z,1012.27
2017-12-04T12:35:59.017Z,1012.42
2017-12-04T12:39:05.398Z,1012.48
2017-12-04T12:40:05.143Z,1012.43
2017-12-04T12:47:48.633Z,1012.35
2017-12-04T12:48:47.624Z,1012.36
2017-12-04T12:49:47.760Z,1012.33
2017-12-04T12:50:47.244Z,1012.24
2017-12-04T12:51:47.398Z,1012.40
2017-12-04T12:52:46.928Z,1012.34
2017-12-04T12:53:48.516Z,1012.40
2017-12-04T12:54:46.861Z,1012.41
2017-12-04T12:55:47.533Z,1012.46
2017-12-04T12:56:48.132Z,1012.50
2017-12-04T12:57:57.744Z,1012.40
2017-12-04T13:05:54.773Z,1012.72
2017-12-04T13:07:47.750Z,1012.73
2017-12-04T13:08:48.318Z,1012.73
2017-12-04T13:09:47.757Z,1012.70
2017-12-04T13:10:47.873Z,1012.68
2017-12-04T13:11:48.096Z,1012.68
2017-12-04T13:12:47.754Z,1012.69
2017-12-04T13:13:47.777Z,1012.73
2017-12-04T13:14:47.441Z,1012.71
2017-12-04T13:15:48.057Z,1012.68
2017-12-04T13:16:47.645Z,1012.63
2017-12-04T13:17:47.837Z,1012.72
2017-12-04T13:18:47.234Z,1012.76
2017-12-04T13:19:47.156Z,1012.69
2017-12-04T13:20:47.180Z,1012.73
2017-12-04T13:21:47.227Z,1012.73
2017-12-04T13:24:53.997Z,1012.71
2017-12-04T13:29:49.769Z,1012.69
2017-12-04T13:31:47.249Z,1012.71
2017-12-04T13:33:08.744Z,1012.75
2017-12-04T13:33:49.784Z,1012.75
2017-12-04T13:38:28.812Z,1012.87
2017-12-04T13:39:28.343Z,1012.91
2017-12-04T13:40:28.387Z,1012.86
2017-12-04T13:41:28.341Z,1012.88
2017-12-04T13:42:28.279Z,1012.91
2017-12-04T13:43:28.253Z,1012.91
2017-12-04T13:44:28.286Z,1012.87
2017-12-04T13:45:28.256Z,1012.94
2017-12-04T13:46:28.221Z,1012.92
2017-12-04T13:47:28.354Z,1012.84
2017-12-04T13:48:28.194Z,1012.82
2017-12-04T13:49:28.182Z,1012.81
2017-12-04T13:50:28.162Z,1012.78
2017-12-04T13:51:28.154Z,1012.76
2017-12-04T13:52:28.136Z,1012.79
2017-12-04T13:53:28.260Z,1012.78
2017-12-04T13:54:28.112Z,1012.79
2017-12-04T13:55:28.100Z,1012.82
2017-12-04T13:56:28.091Z,1012.84
2017-12-04T13:57:28.073Z,1012.82
2017-12-04T13:58:28.063Z,1012.86
2017-12-04T13:59:28.129Z,1012.84
2017-12-04T14:00:28.037Z,1012.86
2017-12-04T14:01:28.934Z,1012.90
2017-12-04T14:02:28.019Z,1012.91
2017-12-04T14:03:28.009Z,1012.91
2017-12-04T14:04:27.997Z,1012.92
2017-12-04T14:05:28.140Z,1012.91
2017-12-04T14:06:27.967Z,1012.85
2017-12-04T14:07:27.953Z,1012.91
2017-12-04T14:08:27.938Z,1012.94
2017-12-04T14:09:27.930Z,1012.89
2017-12-04T14:10:27.911Z,1012.95
2017-12-04T14:11:27.939Z,1012.93
2017-12-04T14:12:28.456Z,1012.89
2017-12-04T14:13:27.901Z,1012.80
2017-12-04T14:14:27.860Z,1012.90
2017-12-04T14:15:28.101Z,1012.91
2017-12-04T14:16:27.913Z,1012.91
2017-12-04T14:17:27.871Z,1012.86
2017-12-04T14:18:27.872Z,1012.84
2017-12-04T14:19:27.977Z,1012.99
2017-12-04T14:20:30.438Z,1012.94
2017-12-04T14:21:27.774Z,1012.95
2017-12-04T14:22:27.770Z,1012.96
2017-12-04T14:23:27.793Z,1012.95
2017-12-04T14:24:27.744Z,1012.99
2017-12-04T14:25:28.445Z,1012.98
2017-12-04T14:26:27.708Z,1012.97
2017-12-04T14:27:27.697Z,1013.02
2017-12-04T14:28:27.872Z,1013.01
2017-12-04T14:29:27.667Z,1013.03
2017-12-04T14:30:27.712Z,1013.09
2017-12-04T14:48:44.375Z,1013.20
2017-12-04T14:49:44.273Z,1013.21
2017-12-04T14:50:44.159Z,1013.21
2017-12-04T14:51:44.698Z,1013.17
2017-12-04T14:52:44.023Z,1013.15
2017-12-04T14:53:43.984Z,1013.18
2017-12-04T14:54:43.973Z,1013.20
2017-12-04T14:55:43.960Z,1013.15
2017-12-04T14:56:43.964Z,1013.23
2017-12-04T14:57:43.979Z,1013.18
2017-12-04T14:58:43.914Z,1013.22
2017-12-04T14:59:43.913Z,1013.20
2017-12-04T15:00:43.877Z,1013.20
2017-12-04T15:01:43.861Z,1013.18
2017-12-04T15:02:44.003Z,1013.22
2017-12-04T15:03:43.841Z,1013.20
2017-12-04T15:04:43.846Z,1013.21
2017-12-04T15:05:43.850Z,1013.24
2017-12-04T15:06:43.794Z,1013.25
2017-12-04T15:07:43.781Z,1013.27
2017-12-04T15:08:43.909Z,1013.28
2017-12-04T15:09:43.771Z,1013.34
2017-12-04T15:10:43.735Z,1013.29
2017-12-04T15:11:43.726Z,1013.28
2017-12-04T15:12:43.705Z,1013.32
2017-12-04T15:13:43.694Z,1013.34
2017-12-04T15:14:43.739Z,1013.33
2017-12-04T15:15:43.669Z,1013.33
2017-12-04T15:16:43.653Z,1013.32
2017-12-04T15:17:43.634Z,1013.38
2017-12-04T15:18:43.627Z,1013.39
2017-12-04T15:19:43.614Z,1013.45
2017-12-04T15:20:43.749Z,1013.46
2017-12-04T15:21:43.588Z,1013.46
2017-12-04T15:22:43.570Z,1013.49
2017-12-04T15:23:43.567Z,1013.54
2017-12-04T15:24:43.545Z,1013.56
2017-12-04T15:25:43.541Z,1013.55
2017-12-04T15:26:43.567Z,1013.59
2017-12-04T15:27:43.498Z,1013.59
2017-12-04T15:28:44.575Z,1013.64
2017-12-04T15:29:43.689Z,1013.65
2017-12-04T15:30:44.187Z,1013.64
2017-12-04T15:34:22.066Z,1013.74
2017-12-04T15:35:21.714Z,1013.69
2017-12-04T15:36:21.237Z,1013.69
2017-12-04T15:52:23.936Z,1013.84
2017-12-04T15:53:24.266Z,1013.90
2017-12-04T15:54:24.097Z,1013.92
2017-12-04T15:55:23.152Z,1013.87
2017-12-04T15:56:23.311Z,1013.87
2017-12-04T15:57:23.691Z,1013.92
2017-12-04T15:58:24.625Z,1013.97
2017-12-04T15:59:22.955Z,1013.97
2017-12-04T16:00:22.928Z,1013.93
2017-12-04T16:01:23.662Z,1013.93
2017-12-04T16:02:22.911Z,1013.94
2017-12-04T16:03:28.975Z,1013.95
2017-12-04T16:04:24.066Z,1013.95
2017-12-04T16:05:25.576Z,1013.98
2017-12-04T16:11:28.115Z,1014.08
2017-12-04T16:12:27.550Z,1014.16
2017-12-04T16:13:27.391Z,1014.10
2017-12-04T16:14:27.258Z,1014.10
2017-12-04T16:15:32.407Z,1014.13
2017-12-04T16:18:14.536Z,1014.14
2017-12-04T16:19:14.226Z,1014.15
2017-12-04T16:20:13.606Z,1014.18
2017-12-04T16:21:14.171Z,1014.22
2017-12-04T16:22:13.891Z,1014.22
2017-12-04T16:23:14.313Z,1014.22
2017-12-04T16:24:15.149Z,1014.22
2017-12-04T16:25:14.222Z,1014.14
2017-12-04T16:26:13.388Z,1014.18
2017-12-04T16:27:13.735Z,1014.21
2017-12-04T16:28:13.831Z,1014.18
2017-12-04T16:29:13.550Z,1014.19
2017-12-04T16:30:14.072Z,1014.17
2017-12-04T16:31:14.134Z,1014.21
2017-12-04T16:32:14.254Z,1014.25
2017-12-04T16:33:13.283Z,1014.16
2017-12-04T16:34:13.303Z,1014.26
2017-12-04T16:35:13.326Z,1014.22
2017-12-04T16:36:13.298Z,1014.22
2017-12-04T16:37:13.526Z,1014.22
2017-12-04T16:38:13.430Z,1014.17
2017-12-04T16:39:13.803Z,1014.22
2017-12-04T16:40:13.218Z,1014.24
2017-12-04T16:41:14.210Z,1014.18
2017-12-04T16:42:13.216Z,1014.26
2017-12-04T16:43:14.096Z,1014.24
2017-12-04T16:44:13.495Z,1014.21
2017-12-04T16:45:13.180Z,1014.25
2017-12-04T16:46:13.311Z,1014.26
2017-12-04T16:47:13.678Z,1014.32
2017-12-04T16:48:13.363Z,1014.36
2017-12-04T16:49:13.126Z,1014.39
2017-12-04T16:50:13.198Z,1014.41
2017-12-04T16:51:14.328Z,1014.49
2017-12-04T16:52:13.042Z,1014.48
2017-12-04T16:53:13.231Z,1014.47
2017-12-04T16:54:13.260Z,1014.50
2017-12-04T16:55:13.270Z,1014.48
2017-12-04T16:56:13.653Z,1014.45
2017-12-04T16:57:13.671Z,1014.46
2017-12-04T16:58:13.145Z,1014.49
2017-12-04T16:59:13.980Z,1014.50
2017-12-04T17:00:13.452Z,1014.52
2017-12-04T17:01:13.062Z,1014.53
2017-12-04T17:02:13.441Z,1014.50
2017-12-04T17:03:13.202Z,1014.50
2017-12-04T17:04:12.862Z,1014.55
2017-12-04T17:05:13.624Z,1014.53
2017-12-04T17:06:13.225Z,1014.59
2017-12-04T17:07:13.735Z,1014.61
2017-12-04T17:08:12.765Z,1014.69
2017-12-04T17:09:13.087Z,1014.76
2017-12-04T17:10:13.689Z,1014.79
2017-12-04T17:11:13.138Z,1014.71
2017-12-04T17:12:12.776Z,1014.75
2017-12-04T17:13:12.859Z,1014.71
2017-12-04T17:14:12.767Z,1014.68
2017-12-04T17:15:13.183Z,1014.73
2017-12-04T17:16:12.631Z,1014.81
2017-12-04T17:17:12.921Z,1014.87
2017-12-04T17:18:12.679Z,1014.83
2017-12-04T17:19:13.299Z,1014.76
2017-12-04T17:20:12.742Z,1014.86
2017-12-04T17:21:12.646Z,1014.89
2017-12-04T17:22:12.868Z,1014.88
2017-12-04T17:23:12.580Z,1014.88
2017-12-04T17:24:12.602Z,1014.74
2017-12-04T17:25:12.703Z,1014.75
2017-12-04T17:26:12.535Z,1014.83
2017-12-04T17:27:12.530Z,1014.89
2017-12-04T17:30:01.321Z,1015.12
2017-12-04T17:31:01.208Z,1015.13
2017-12-04T18:01:17.162Z,1015.12
2017-12-04T18:02:16.602Z,1015.13
2017-12-04T18:03:16.713Z,1015.14
2017-12-04T18:04:16.652Z,1015.20
2017-12-04T18:05:16.698Z,1015.22
2017-12-04T18:06:16.630Z,1015.21
2017-12-04T18:07:17.101Z,1015.23
2017-12-04T18:08:15.881Z,1015.26
2017-12-04T18:09:15.898Z,1015.26
2017-12-04T18:10:15.866Z,1015.34
2017-12-04T18:11:15.447Z,1015.31
2017-12-04T18:12:15.428Z,1015.28
2017-12-04T18:13:15.490Z,1015.26
2017-12-04T18:14:15.407Z,1015.31
2017-12-04T18:15:15.390Z,1015.26
2017-12-04T18:16:15.382Z,1015.26
2017-12-04T18:17:15.377Z,1015.28
2017-12-04T18:18:15.350Z,1015.27
2017-12-04T18:19:15.360Z,1015.24
2017-12-04T18:20:15.325Z,1015.26
2017-12-04T18:21:15.305Z,1015.26
2017-12-04T18:22:15.294Z,1015.17
2017-12-04T18:23:15.277Z,1015.19
2017-12-04T18:24:15.403Z,1015.19
2017-12-04T18:25:15.248Z,1015.22
2017-12-04T18:26:15.233Z,1015.21
2017-12-04T18:27:15.221Z,1015.24
2017-12-04T18:28:15.203Z,1015.23
2017-12-04T18:29:15.198Z,1015.27
2017-12-04T18:30:15.215Z,1015.22
2017-12-04T18:31:15.163Z,1015.21
2017-12-04T18:32:15.144Z,1015.23
2017-12-04T18:33:15.134Z,1015.17
2017-12-04T18:34:15.117Z,1015.23
2017-12-04T18:35:15.236Z,1015.26
2017-12-04T18:36:15.087Z,1015.28
2017-12-04T18:37:15.076Z,1015.21
2017-12-04T18:38:15.069Z,1015.30
2017-12-04T18:39:15.057Z,1015.25
2017-12-04T18:40:15.044Z,1015.27
2017-12-04T18:41:15.087Z,1015.31
2017-12-04T18:42:15.015Z,1015.36
2017-12-04T18:43:15.011Z,1015.34
2017-12-04T18:44:15.040Z,1015.33
2017-12-04T18:45:14.976Z,1015.26
2017-12-04T18:46:14.965Z,1015.28
2017-12-04T18:47:14.983Z,1015.33
2017-12-04T18:48:14.932Z,1015.34
2017-12-04T18:49:14.922Z,1015.35
2017-12-04T18:50:14.913Z,1015.37
2017-12-04T18:51:14.939Z,1015.42
2017-12-04T18:52:14.876Z,1015.43
2017-12-04T18:53:14.885Z,1015.37
2017-12-04T18:54:14.856Z,1015.40
2017-12-04T18:55:14.841Z,1015.38
2017-12-04T18:56:14.813Z,1015.47
2017-12-04T18:57:14.835Z,1015.43
2017-12-04T18:58:14.793Z,1015.41
2017-12-04T18:59:14.778Z,1015.48
2017-12-04T19:00:14.761Z,1015.46
2017-12-04T19:01:14.744Z,1015.45
2017-12-04T19:02:14.865Z,1015.44
2017-12-04T19:03:14.714Z,1015.43
2017-12-04T19:04:14.703Z,1015.41
2017-12-04T19:05:14.696Z,1015.45
2017-12-04T19:06:14.681Z,1015.46
2017-12-04T19:07:14.675Z,1015.45
2017-12-04T19:08:14.682Z,1015.44
2017-12-04T19:09:14.641Z,1015.45
2017-12-04T19:10:14.615Z,1015.43
2017-12-04T19:11:14.610Z,1015.42
2017-12-04T19:12:14.639Z,1015.45
2017-12-04T19:13:14.571Z,1015.46
2017-12-04T19:14:14.551Z,1015.49
2017-12-04T19:15:14.547Z,1015.45
2017-12-04T19:16:14.547Z,1015.42
2017-12-04T19:17:14.521Z,1015.46
2017-12-04T19:18:14.529Z,1015.48
2017-12-04T19:19:14.488Z,1015.47
2017-12-04T19:20:14.480Z,1015.49
2017-12-04T19:21:14.460Z,1015.52
2017-12-04T19:22:14.599Z,1015.52
2017-12-04T19:23:14.434Z,1015.53
2017-12-04T19:24:14.431Z,1015.57
2017-12-04T19:25:14.420Z,1015.57
2017-12-04T19:26:14.395Z,1015.60
2017-12-04T19:27:14.372Z,1015.59
2017-12-04T19:28:14.418Z,1015.64
2017-12-04T19:29:14.362Z,1015.47
2017-12-04T19:30:14.335Z,1015.59
2017-12-04T19:31:14.321Z,1015.53
2017-12-04T19:32:14.307Z,1015.60
2017-12-04T19:33:14.297Z,1015.60
2017-12-04T19:34:14.311Z,1015.59
2017-12-04T19:35:14.271Z,1015.55
2017-12-04T19:36:14.247Z,1015.60
2017-12-04T19:37:14.234Z,1015.59
2017-12-04T19:38:14.220Z,1015.57
2017-12-04T19:39:14.265Z,1015.61
2017-12-04T19:40:14.202Z,1015.61
2017-12-04T19:41:14.205Z,1015.62
2017-12-04T19:42:14.173Z,1015.63
2017-12-04T19:43:14.160Z,1015.66
2017-12-04T19:44:14.152Z,1015.67
2017-12-04T19:45:14.212Z,1015.73
2017-12-04T19:46:14.122Z,1015.75
2017-12-04T19:47:14.105Z,1015.70
2017-12-04T19:48:14.090Z,1015.71
2017-12-04T19:49:14.071Z,1015.65
2017-12-04T19:50:14.065Z,1015.68
2017-12-04T19:51:14.105Z,1015.69
2017-12-04T19:52:14.039Z,1015.75
2017-12-04T19:53:14.051Z,1015.72
2017-12-04T19:54:14.002Z,1015.78
2017-12-04T19:55:13.994Z,1015.77
2017-12-04T19:56:13.965Z,1015.81
2017-12-04T19:57:14.019Z,1015.72
2017-12-04T19:58:13.936Z,1015.75
2017-12-04T19:59:13.930Z,1015.77
2017-12-04T20:00:13.905Z,1015.80
2017-12-04T20:01:13.899Z,1015.85
2017-12-04T20:02:13.892Z,1015.88
2017-12-04T20:03:13.911Z,1015.87
2017-12-04T20:04:13.852Z,1015.78
2017-12-04T20:05:13.848Z,1015.85
2017-12-04T20:06:13.826Z,1015.87
2017-12-04T20:07:13.862Z,1015.88
2017-12-04T20:08:13.805Z,1015.86
2017-12-04T20:09:13.795Z,1015.88
2017-12-04T20:10:13.778Z,1015.92
2017-12-04T20:11:13.761Z,1015.88
2017-12-04T20:12:13.750Z,1015.89
2017-12-04T20:13:13.822Z,1015.94
2017-12-04T20:14:13.714Z,1015.91
2017-12-04T20:15:13.698Z,1015.95
2017-12-04T20:16:13.694Z,1015.92
2017-12-04T20:17:13.668Z,1015.93
2017-12-04T20:18:13.665Z,1015.92
2017-12-04T20:19:13.710Z,1015.91
2017-12-04T20:20:13.629Z,1015.91
2017-12-04T20:21:13.624Z,1015.90
2017-12-04T20:22:13.604Z,1015.95
2017-12-04T20:23:13.594Z,1015.94
2017-12-04T20:24:13.599Z,1015.91
2017-12-04T20:25:13.612Z,1015.99
2017-12-04T20:26:13.596Z,1016.02
2017-12-04T20:27:13.536Z,1016.04
2017-12-04T20:28:13.522Z,1015.99
2017-12-04T20:29:13.505Z,1015.95
2017-12-04T20:30:13.493Z,1016.00
2017-12-04T20:31:13.481Z,1016.00
2017-12-04T20:32:13.509Z,1016.00
2017-12-04T20:33:13.560Z,1016.04
2017-12-04T20:34:13.459Z,1016.06
2017-12-04T20:35:13.418Z,1016.05
2017-12-04T20:36:13.406Z,1016.06
2017-12-04T20:37:13.538Z,1016.08
2017-12-04T20:38:13.524Z,1016.04
2017-12-04T20:39:13.368Z,1016.12
2017-12-04T20:40:13.355Z,1016.15
2017-12-04T20:41:13.341Z,1016.09
2017-12-04T20:42:13.330Z,1016.11
2017-12-04T20:43:13.324Z,1016.15
2017-12-04T20:44:13.441Z,1016.13
2017-12-04T20:45:13.274Z,1016.14
2017-12-04T20:46:13.269Z,1016.07
2017-12-04T20:47:13.272Z,1016.12
2017-12-04T20:48:13.247Z,1016.06
2017-12-04T20:49:13.225Z,1016.15
2017-12-04T20:50:13.266Z,1016.16
2017-12-04T20:51:13.198Z,1016.22
2017-12-04T20:52:13.187Z,1016.15
2017-12-04T20:53:13.178Z,1016.16
2017-12-04T20:54:13.184Z,1016.19
2017-12-04T20:55:13.136Z,1016.16
2017-12-04T20:56:13.127Z,1016.11
2017-12-04T20:57:13.122Z,1016.20
2017-12-04T20:58:13.121Z,1016.22
2017-12-04T20:59:13.235Z,1016.18
2017-12-04T21:00:13.071Z,1016.18
2017-12-04T21:01:13.057Z,1016.24
2017-12-04T21:02:13.055Z,1016.05
2017-12-04T21:03:13.031Z,1016.17
2017-12-04T21:04:13.012Z,1016.21
2017-12-04T21:05:13.137Z,1016.25
2017-12-04T21:06:12.986Z,1016.25
2017-12-04T21:07:12.964Z,1016.18
2017-12-04T21:08:12.960Z,1016.14
2017-12-04T21:09:12.938Z,1016.22
2017-12-04T21:10:12.925Z,1016.25
2017-12-04T21:11:12.938Z,1016.16
2017-12-04T21:12:12.903Z,1016.20
2017-12-04T21:13:12.886Z,1016.25
2017-12-04T21:14:12.877Z,1016.22
2017-12-04T21:15:12.855Z,1016.26
2017-12-04T21:16:12.912Z,1016.20
2017-12-04T21:17:12.825Z,1016.21
2017-12-04T21:18:12.815Z,1016.25
2017-12-04T21:19:12.806Z,1016.30
2017-12-04T21:20:12.791Z,1016.31
2017-12-04T21:21:12.779Z,1016.34
2017-12-04T21:22:12.822Z,1016.26
2017-12-04T21:23:12.744Z,1016.31
2017-12-04T21:24:12.733Z,1016.35
2017-12-04T21:25:12.719Z,1016.31
2017-12-04T21:26:12.712Z,1016.30
2017-12-04T21:27:12.695Z,1016.33
2017-12-04T21:28:12.710Z,1016.34
2017-12-04T21:29:12.661Z,1016.34
2017-12-04T21:30:12.651Z,1016.35
2017-12-04T21:31:12.637Z,1016.34
2017-12-04T21:32:12.620Z,1016.32
2017-12-04T21:33:12.675Z,1016.37
2017-12-04T21:34:12.582Z,1016.27
2017-12-04T21:35:12.570Z,1016.27
2017-12-04T21:36:12.566Z,1016.27
2017-12-04T21:37:12.553Z,1016.30
2017-12-04T21:38:12.534Z,1016.33
2017-12-04T21:39:12.543Z,1016.31
2017-12-04T21:40:12.496Z,1016.29
2017-12-04T21:41:12.491Z,1016.37
2017-12-04T21:42:12.475Z,1016.28
2017-12-04T21:43:12.495Z,1016.35
2017-12-04T21:44:12.449Z,1016.37
2017-12-04T21:45:12.427Z,1016.35
2017-12-04T21:46:12.419Z,1016.36
2017-12-04T21:47:12.396Z,1016.39
2017-12-04T21:48:12.760Z,1016.37
2017-12-04T21:49:12.380Z,1016.40
2017-12-04T21:50:12.363Z,1016.39
2017-12-04T21:51:12.351Z,1016.38
2017-12-04T21:52:12.330Z,1016.36
2017-12-04T21:53:12.329Z,1016.42
2017-12-04T21:54:12.365Z,1016.41
2017-12-04T21:55:12.286Z,1016.41
2017-12-04T21:56:12.292Z,1016.39
2017-12-04T21:57:12.266Z,1016.46
2017-12-04T21:58:12.249Z,1016.47
2017-12-04T21:59:12.235Z,1016.51
2017-12-04T22:00:12.282Z,1016.46
2017-12-04T22:01:12.205Z,1016.48
2017-12-04T22:02:12.184Z,1016.50
2017-12-04T22:03:12.171Z,1016.52
2017-12-04T22:04:12.155Z,1016.50
2017-12-04T22:05:12.140Z,1016.52
2017-12-04T22:06:12.159Z,1016.55
2017-12-04T22:07:12.116Z,1016.54
2017-12-04T22:08:12.137Z,1016.52
2017-12-04T22:09:12.082Z,1016.47
2017-12-04T22:10:12.070Z,1016.57
2017-12-04T22:11:12.112Z,1016.53
2017-12-04T22:12:12.053Z,1016.58
2017-12-04T22:13:12.026Z,1016.48
2017-12-04T22:14:12.005Z,1016.53
2017-12-04T22:15:12.005Z,1016.58
2017-12-04T22:16:11.986Z,1016.53
2017-12-04T22:17:12.111Z,1016.64
2017-12-04T22:18:11.966Z,1016.54
2017-12-04T22:19:11.952Z,1016.59
2017-12-04T22:20:11.934Z,1016.53
2017-12-04T22:21:11.904Z,1016.55
2017-12-04T22:22:11.906Z,1016.48
2017-12-04T22:23:11.945Z,1016.50
2017-12-04T22:24:11.884Z,1016.54
2017-12-04T22:25:11.861Z,1016.56
2017-12-04T22:26:11.859Z,1016.53
2017-12-04T22:27:11.839Z,1016.58
2017-12-04T22:28:11.806Z,1016.63
2017-12-04T22:29:11.828Z,1016.56
2017-12-04T22:30:11.783Z,1016.61
2017-12-04T22:31:11.785Z,1016.59
2017-12-04T22:32:11.777Z,1016.64
2017-12-04T22:33:11.784Z,1016.61
2017-12-04T22:34:11.725Z,1016.62
2017-12-04T22:35:11.720Z,1016.56
2017-12-04T22:36:11.699Z,1016.65
2017-12-04T22:37:11.706Z,1016.69
2017-12-04T22:38:11.743Z,1016.60
2017-12-04T22:39:11.669Z,1016.69
2017-12-04T22:40:11.643Z,1016.49
2017-12-04T22:41:11.640Z,1016.59
2017-12-04T22:42:11.655Z,1016.67
2017-12-04T22:43:11.604Z,1016.67
2017-12-04T22:44:11.748Z,1016.67
2017-12-04T22:45:11.600Z,1016.68
2017-12-04T22:46:11.561Z,1016.61
2017-12-04T22:47:11.549Z,1016.64
2017-12-04T22:48:11.521Z,1016.68
2017-12-04T22:49:11.526Z,1016.70
2017-12-04T22:50:11.537Z,1016.68
2017-12-04T22:51:11.555Z,1016.67
2017-12-04T22:52:11.473Z,1016.68
2017-12-04T22:53:11.460Z,1016.64
2017-12-04T22:54:11.448Z,1016.65
2017-12-04T22:55:11.602Z,1016.66
2017-12-04T22:56:11.418Z,1016.71
2017-12-04T22:57:11.399Z,1016.65
2017-12-04T22:58:11.391Z,1016.69
2017-12-04T22:59:11.382Z,1016.69
2017-12-04T23:00:11.372Z,1016.70
2017-12-04T23:01:11.464Z,1016.76
2017-12-04T23:02:11.346Z,1016.78
2017-12-04T23:03:11.311Z,1016.65
2017-12-04T23:04:12.219Z,1016.74
2017-12-04T23:05:11.301Z,1016.81
2017-12-04T23:06:11.269Z,1016.82
2017-12-04T23:07:11.335Z,1016.82
2017-12-04T23:08:11.247Z,1016.74
2017-12-04T23:09:11.481Z,1016.78
2017-12-04T23:10:11.239Z,1016.77
2017-12-04T23:11:11.213Z,1016.80
2017-12-04T23:12:11.183Z,1016.80